createdAt,value
2018-08-18T00:00:46.557Z,59.90
2018-08-18T00:02:03.491Z,59.60
2018-08-18T00:03:20.383Z,59.70
2018-08-18T00:04:36.883Z,59.70
2018-08-18T00:05:53.833Z,59.60
2018-08-18T00:07:11.360Z,60.30
2018-08-18T00:08:28.475Z,59.70
2018-08-18T00:09:45.102Z,59.60
2018-08-18T00:11:02.723Z,59.80
2018-08-18T00:12:25.040Z,59.70
2018-08-18T00:13:54.808Z,59.70
2018-08-18T00:15:12.014Z,59.70
2018-08-18T00:16:28.899Z,59.60
2018-08-18T00:17:45.788Z,60.30
2018-08-18T00:19:02.833Z,59.50
2018-08-18T00:20:23.400Z,59.60
2018-08-18T00:21:40.052Z,59.60
2018-08-18T00:22:56.724Z,60.20
2018-08-18T00:24:14.321Z,59.60
2018-08-18T00:25:31.704Z,59.70
2018-08-18T00:26:48.838Z,59.60
2018-08-18T00:28:15.850Z,59.80
2018-08-18T00:29:32.712Z,59.70
2018-08-18T00:30:49.915Z,60.40
2018-08-18T00:32:06.927Z,59.60
2018-08-18T00:33:24.589Z,59.60
2018-08-18T00:34:46.202Z,59.50
2018-08-18T00:36:02.758Z,59.60
2018-08-18T00:37:19.841Z,59.60
2018-08-18T00:38:38.093Z,59.30
2018-08-18T00:39:56.692Z,59.50
2018-08-18T00:41:13.633Z,59.60
2018-08-18T00:42:30.229Z,59.40
2018-08-18T00:43:48.622Z,60.10
2018-08-18T00:45:07.644Z,59.40
2018-08-18T00:46:28.209Z,59.40
2018-08-18T00:47:45.516Z,59.40
2018-08-18T00:49:02.524Z,59.40
2018-08-18T00:50:33.645Z,59.40
2018-08-18T00:51:52.008Z,60.10
2018-08-18T00:53:10.329Z,59.40
2018-08-18T00:54:27.074Z,59.60
2018-08-18T00:55:43.615Z,59.50
2018-08-18T00:57:02.112Z,60.00
2018-08-18T00:58:26.387Z,59.60
2018-08-18T00:59:43.601Z,59.50
2018-08-18T01:01:06.092Z,59.50
2018-08-18T01:02:23.393Z,59.60
2018-08-18T01:03:45.604Z,59.60
2018-08-18T01:05:03.130Z,59.60
2018-08-18T01:06:22.396Z,59.60
2018-08-18T01:07:39.278Z,59.60
2018-08-18T01:08:56.913Z,59.60
2018-08-18T01:10:13.706Z,59.60
2018-08-18T01:11:31.380Z,59.50
2018-08-18T01:12:48.036Z,59.40
2018-08-18T01:14:13.749Z,59.50
2018-08-18T01:15:30.600Z,60.20
2018-08-18T01:16:53.389Z,59.40
2018-08-18T01:18:10.494Z,59.50
2018-08-18T01:19:27.092Z,59.50
2018-08-18T01:20:43.998Z,60.10
2018-08-18T01:22:00.937Z,60.00
2018-08-18T01:23:17.582Z,59.40
2018-08-18T01:24:34.445Z,59.30
2018-08-18T01:25:51.274Z,59.40
2018-08-18T01:27:08.328Z,59.40
2018-08-18T01:28:24.969Z,60.00
2018-08-18T01:29:43.519Z,59.40
2018-08-18T01:31:19.515Z,59.30
2018-08-18T01:32:36.400Z,59.40
2018-08-18T01:33:53.817Z,59.90
2018-08-18T01:35:11.325Z,59.20
2018-08-18T01:36:27.971Z,59.30
2018-08-18T01:37:44.973Z,59.90
2018-08-18T01:39:01.781Z,59.10
2018-08-18T01:40:18.653Z,59.10
2018-08-18T01:41:35.678Z,59.00
2018-08-18T01:42:52.227Z,59.70
2018-08-18T01:44:12.673Z,59.00
2018-08-18T01:45:30.361Z,58.90
2018-08-18T01:46:48.796Z,58.80
2018-08-18T01:48:05.845Z,58.80
2018-08-18T01:49:29.566Z,59.40
2018-08-18T01:50:46.644Z,59.40
2018-08-18T01:52:12.788Z,58.70
2018-08-18T01:53:30.290Z,58.80
2018-08-18T01:54:47.441Z,58.60
2018-08-18T01:56:04.069Z,58.60
2018-08-18T01:57:22.350Z,58.50
2018-08-18T01:58:39.013Z,58.60
2018-08-18T01:59:55.838Z,59.10
2018-08-18T02:01:12.928Z,58.40
2018-08-18T02:02:30.254Z,58.40
2018-08-18T02:03:46.933Z,58.50
2018-08-18T02:05:13.948Z,58.50
2018-08-18T02:06:30.656Z,58.50
2018-08-18T02:07:47.688Z,58.40
2018-08-18T02:09:05.808Z,59.10
2018-08-18T02:10:22.381Z,58.50
2018-08-18T02:11:39.695Z,59.20
2018-08-18T02:13:02.062Z,58.50
2018-08-18T02:14:21.729Z,58.30
2018-08-18T02:15:38.738Z,59.20
2018-08-18T02:17:59.153Z,58.70
2018-08-18T02:19:17.857Z,59.20
2018-08-18T02:20:35.297Z,58.40
2018-08-18T02:21:51.964Z,58.60
2018-08-18T02:23:08.919Z,58.50
2018-08-18T02:24:25.746Z,58.50
2018-08-18T02:25:42.658Z,58.50
2018-08-18T02:26:59.644Z,59.10
2018-08-18T02:28:27.437Z,58.40
2018-08-18T02:29:49.153Z,58.40
2018-08-18T02:31:06.217Z,58.40
2018-08-18T02:32:29.976Z,58.40
2018-08-18T02:33:47.036Z,58.50
2018-08-18T02:35:04.617Z,58.50
2018-08-18T02:36:21.148Z,58.40
2018-08-18T02:37:38.116Z,58.60
2018-08-18T02:38:58.531Z,58.50
2018-08-18T02:40:17.196Z,58.40
2018-08-18T02:41:35.799Z,58.40
2018-08-18T02:42:52.551Z,58.40
2018-08-18T02:44:09.734Z,58.40
2018-08-18T02:45:26.633Z,58.80
2018-08-18T02:46:44.050Z,58.30
2018-08-18T02:48:12.297Z,58.30
2018-08-18T02:49:33.126Z,58.30
2018-08-18T02:50:51.491Z,58.90
2018-08-18T02:52:13.546Z,58.30
2018-08-18T02:53:30.743Z,58.30
2018-08-18T02:54:47.376Z,58.30
2018-08-18T02:56:04.394Z,58.30
2018-08-18T02:57:25.153Z,58.30
2018-08-18T02:58:47.186Z,58.30
2018-08-18T03:00:06.541Z,58.40
2018-08-18T03:01:28.212Z,58.40
2018-08-18T03:02:44.840Z,58.30
2018-08-18T03:04:01.929Z,58.40
2018-08-18T03:05:19.561Z,58.40
2018-08-18T03:06:36.505Z,59.00
2018-08-18T03:07:53.235Z,58.40
2018-08-18T03:09:11.259Z,58.30
2018-08-18T03:10:28.821Z,58.30
2018-08-18T03:11:45.841Z,58.40
2018-08-18T03:13:03.582Z,58.40
2018-08-18T03:14:21.133Z,58.50
2018-08-18T03:15:55.820Z,58.40
2018-08-18T03:17:13.428Z,58.40
2018-08-18T03:18:42.045Z,58.50
2018-08-18T03:19:58.631Z,58.50
2018-08-18T03:21:15.917Z,58.60
2018-08-18T03:22:38.852Z,58.90
2018-08-18T03:24:10.114Z,58.50
2018-08-18T03:25:38.741Z,58.50
2018-08-18T03:26:57.321Z,58.60
2018-08-18T03:28:13.919Z,58.60
2018-08-18T03:29:36.615Z,59.20
2018-08-18T03:30:54.006Z,58.50
2018-08-18T03:32:11.385Z,58.60
2018-08-18T03:33:28.170Z,59.10
2018-08-18T03:34:45.224Z,58.60
2018-08-18T03:36:09.812Z,58.60
2018-08-18T03:37:30.064Z,58.60
2018-08-18T03:38:47.588Z,58.50
2018-08-18T03:40:04.531Z,58.40
2018-08-18T03:41:22.844Z,59.10
2018-08-18T03:42:42.608Z,58.60
2018-08-18T03:43:59.645Z,58.40
2018-08-18T03:45:16.272Z,58.50
2018-08-18T03:46:33.012Z,58.40
2018-08-18T03:47:50.085Z,59.10
2018-08-18T03:49:06.736Z,58.50
2018-08-18T03:50:23.584Z,58.50
2018-08-18T03:51:43.049Z,58.40
2018-08-18T03:53:00.189Z,58.40
2018-08-18T03:54:17.266Z,58.40
2018-08-18T03:55:38.264Z,59.00
2018-08-18T03:56:55.124Z,58.50
2018-08-18T03:58:11.768Z,58.30
2018-08-18T03:59:28.768Z,58.30
2018-08-18T04:00:45.747Z,58.30
2018-08-18T04:02:02.754Z,58.30
2018-08-18T04:03:19.529Z,58.40
2018-08-18T04:04:37.316Z,58.30
2018-08-18T04:05:54.118Z,58.30
2018-08-18T04:07:11.195Z,58.30
2018-08-18T04:08:29.548Z,58.30
2018-08-18T04:09:46.508Z,58.30
2018-08-18T04:11:03.174Z,58.30
2018-08-18T04:12:20.312Z,58.30
2018-08-18T04:13:37.309Z,58.40
2018-08-18T04:14:54.277Z,58.20
2018-08-18T04:16:10.936Z,58.30
2018-08-18T04:17:30.784Z,58.20
2018-08-18T04:18:47.698Z,58.90
2018-08-18T04:20:05.237Z,58.10
2018-08-18T04:21:22.409Z,58.10
2018-08-18T04:22:39.924Z,58.10
2018-08-18T04:23:56.978Z,58.00
2018-08-18T04:25:13.529Z,58.10
2018-08-18T04:26:30.975Z,58.80
2018-08-18T04:27:49.220Z,58.80
2018-08-18T04:29:06.444Z,58.00
2018-08-18T04:30:23.382Z,58.10
2018-08-18T04:31:40.198Z,58.00
2018-08-18T04:33:01.548Z,58.10
2018-08-18T04:34:18.889Z,58.00
2018-08-18T04:35:35.796Z,58.00
2018-08-18T04:36:52.766Z,58.00
2018-08-18T04:38:09.627Z,57.80
2018-08-18T04:39:26.448Z,57.80
2018-08-18T04:40:43.133Z,57.70
2018-08-18T04:41:59.958Z,57.80
2018-08-18T04:43:16.468Z,57.80
2018-08-18T04:44:33.764Z,58.40
2018-08-18T04:45:51.187Z,57.90
2018-08-18T04:47:08.208Z,57.90
2018-08-18T04:48:30.128Z,57.90
2018-08-18T04:49:46.848Z,57.90
2018-08-18T04:51:03.613Z,58.20
2018-08-18T04:52:20.716Z,58.00
2018-08-18T04:53:37.300Z,58.00
2018-08-18T04:54:54.392Z,58.00
2018-08-18T04:56:11.094Z,57.50
2018-08-18T04:57:28.472Z,58.00
2018-08-18T04:58:45.821Z,58.80
2018-08-18T05:00:02.874Z,57.90
2018-08-18T05:01:19.556Z,58.70
2018-08-18T05:02:42.700Z,57.50
2018-08-18T05:04:09.944Z,57.90
2018-08-18T05:05:28.729Z,57.70
2018-08-18T05:06:46.105Z,57.70
2018-08-18T05:08:03.097Z,57.70
2018-08-18T05:09:19.961Z,57.90
2018-08-18T05:10:38.624Z,57.90
2018-08-18T05:11:55.664Z,57.90
2018-08-18T05:13:12.714Z,57.90
2018-08-18T05:14:29.703Z,57.90
2018-08-18T05:15:46.353Z,58.60
2018-08-18T05:17:03.442Z,58.00
2018-08-18T05:18:20.229Z,58.10
2018-08-18T05:19:37.185Z,58.00
2018-08-18T05:20:54.181Z,58.00
2018-08-18T05:22:11.033Z,58.00
2018-08-18T05:23:27.722Z,58.00
2018-08-18T05:24:44.727Z,58.10
2018-08-18T05:26:01.697Z,57.50
2018-08-18T05:27:19.489Z,58.00
2018-08-18T05:28:36.541Z,58.00
2018-08-18T05:29:53.344Z,58.20
2018-08-18T05:31:10.394Z,58.20
2018-08-18T05:32:27.159Z,58.30
2018-08-18T05:33:44.144Z,58.20
2018-08-18T05:35:01.069Z,58.20
2018-08-18T05:36:18.411Z,58.40
2018-08-18T05:37:35.969Z,58.40
2018-08-18T05:38:52.872Z,58.80
2018-08-18T05:40:09.616Z,58.70
2018-08-18T05:41:26.392Z,58.70
2018-08-18T05:42:43.297Z,58.80
2018-08-18T05:44:00.867Z,59.10
2018-08-18T05:45:25.172Z,59.10
2018-08-18T05:46:42.687Z,59.20
2018-08-18T05:47:59.371Z,59.20
2018-08-18T05:49:17.037Z,59.30
2018-08-18T05:50:34.210Z,59.40
2018-08-18T05:51:50.860Z,59.40
2018-08-18T05:53:26.333Z,59.50
2018-08-18T05:54:43.873Z,59.60
2018-08-18T05:56:01.484Z,59.70
2018-08-18T05:57:18.488Z,59.70
2018-08-18T05:58:51.075Z,59.80
2018-08-18T06:00:13.476Z,60.20
2018-08-18T06:01:35.844Z,59.90
2018-08-18T06:02:59.108Z,60.00
2018-08-18T06:04:18.072Z,60.00
2018-08-18T06:05:35.698Z,60.10
2018-08-18T06:06:52.969Z,60.20
2018-08-18T06:08:10.560Z,60.20
2018-08-18T06:09:27.381Z,60.30
2018-08-18T06:10:44.611Z,60.40
2018-08-18T06:12:06.802Z,60.40
2018-08-18T06:13:24.234Z,60.60
2018-08-18T06:14:46.549Z,60.40
2018-08-18T06:16:10.565Z,60.30
2018-08-18T06:17:32.241Z,60.30
2018-08-18T06:18:48.968Z,60.70
2018-08-18T06:20:07.497Z,60.30
2018-08-18T06:21:24.804Z,60.60
2018-08-18T06:22:42.309Z,60.60
2018-08-18T06:23:59.544Z,60.80
2018-08-18T06:25:16.222Z,60.50
2018-08-18T06:26:33.418Z,60.60
2018-08-18T06:27:50.228Z,60.80
2018-08-18T06:29:07.170Z,60.60
2018-08-18T06:30:23.960Z,60.30
2018-08-18T06:31:57.309Z,60.70
2018-08-18T06:33:14.976Z,60.80
2018-08-18T06:34:34.035Z,60.80
2018-08-18T06:35:51.699Z,60.90
2018-08-18T06:37:09.156Z,60.80
2018-08-18T06:38:26.014Z,60.80
2018-08-18T06:39:53.200Z,60.80
2018-08-18T06:41:10.005Z,60.80
2018-08-18T06:42:33.988Z,60.90
2018-08-18T06:43:50.931Z,60.90
2018-08-18T06:45:10.338Z,60.80
2018-08-18T06:46:27.328Z,60.80
2018-08-18T06:47:44.636Z,60.80
2018-08-18T06:49:01.820Z,60.80
2018-08-18T06:50:19.465Z,60.80
2018-08-18T06:51:36.454Z,60.80
2018-08-18T06:52:53.320Z,60.90
2018-08-18T06:54:09.876Z,60.80
2018-08-18T06:55:26.776Z,61.40
2018-08-18T06:56:43.568Z,60.90
2018-08-18T06:58:00.219Z,60.90
2018-08-18T06:59:16.994Z,61.00
2018-08-18T07:00:33.889Z,60.90
2018-08-18T07:01:50.881Z,61.00
2018-08-18T07:03:19.446Z,60.90
2018-08-18T07:04:36.855Z,61.10
2018-08-18T07:05:53.408Z,61.00
2018-08-18T07:07:10.401Z,61.40
2018-08-18T07:08:27.198Z,61.40
2018-08-18T07:09:43.853Z,61.30
2018-08-18T07:11:01.755Z,60.90
2018-08-18T07:12:18.881Z,60.90
2018-08-18T07:13:35.424Z,61.00
2018-08-18T07:14:53.214Z,60.90
2018-08-18T07:16:10.415Z,61.00
2018-08-18T07:17:27.481Z,61.00
2018-08-18T07:18:44.418Z,60.70
2018-08-18T07:20:01.483Z,59.70
2018-08-18T07:21:18.504Z,60.20
2018-08-18T07:22:35.865Z,60.30
2018-08-18T07:23:52.484Z,59.50
2018-08-18T07:25:09.647Z,59.30
2018-08-18T07:26:26.323Z,59.50
2018-08-18T07:27:42.900Z,59.50
2018-08-18T07:28:59.964Z,59.30
2018-08-18T07:30:16.427Z,59.10
2018-08-18T07:31:33.454Z,59.20
2018-08-18T07:32:50.480Z,59.10
2018-08-18T07:34:07.706Z,59.30
2018-08-18T07:35:24.580Z,59.10
2018-08-18T07:36:42.161Z,58.80
2018-08-18T07:37:58.805Z,58.70
2018-08-18T07:39:15.685Z,58.90
2018-08-18T07:40:45.063Z,58.90
2018-08-18T07:42:02.609Z,59.40
2018-08-18T07:43:26.731Z,58.80
2018-08-18T07:44:43.777Z,58.80
2018-08-18T07:46:03.131Z,58.80
2018-08-18T07:47:24.619Z,58.70
2018-08-18T07:48:42.480Z,58.50
2018-08-18T07:49:59.369Z,58.60
2018-08-18T07:51:15.976Z,58.10
2018-08-18T07:52:32.871Z,57.70
2018-08-18T07:53:49.880Z,57.50
2018-08-18T07:55:06.393Z,57.20
2018-08-18T07:56:23.348Z,56.90
2018-08-18T07:57:45.441Z,57.20
2018-08-18T07:59:02.052Z,57.20
2018-08-18T08:00:18.982Z,56.80
2018-08-18T08:01:35.701Z,56.80
2018-08-18T08:02:52.629Z,57.30
2018-08-18T08:04:09.345Z,56.30
2018-08-18T08:05:26.053Z,56.80
2018-08-18T08:06:43.229Z,56.30
2018-08-18T08:08:00.808Z,56.40
2018-08-18T08:09:17.826Z,56.30
2018-08-18T08:10:34.621Z,55.80
2018-08-18T08:11:51.450Z,56.20
2018-08-18T08:13:09.832Z,55.70
2018-08-18T08:14:27.257Z,55.50
2018-08-18T08:15:44.378Z,55.50
2018-08-18T08:17:01.328Z,55.60
2018-08-18T08:18:18.864Z,55.60
2018-08-18T08:19:35.468Z,55.70
2018-08-18T08:20:52.368Z,55.50
2018-08-18T08:22:11.312Z,54.90
2018-08-18T08:23:28.336Z,54.90
2018-08-18T08:24:45.517Z,54.50
2018-08-18T08:26:03.417Z,54.90
2018-08-18T08:27:20.763Z,54.90
2018-08-18T08:28:37.716Z,55.50
2018-08-18T08:29:54.693Z,55.00
2018-08-18T08:31:11.518Z,54.80
2018-08-18T08:32:28.830Z,55.30
2018-08-18T08:33:45.762Z,54.80
2018-08-18T08:35:03.572Z,54.60
2018-08-18T08:36:20.585Z,54.70
2018-08-18T08:37:37.724Z,55.00
2018-08-18T08:38:59.132Z,54.30
2018-08-18T08:40:17.725Z,54.30
2018-08-18T08:41:35.124Z,54.40
2018-08-18T08:42:52.257Z,54.30
2018-08-18T08:44:08.883Z,54.30
2018-08-18T08:45:25.502Z,54.60
2018-08-18T08:46:56.780Z,54.60
2018-08-18T08:48:13.847Z,53.90
2018-08-18T08:49:30.817Z,54.60
2018-08-18T08:50:48.145Z,54.60
2018-08-18T08:52:05.236Z,54.10
2018-08-18T08:53:22.665Z,54.10
2018-08-18T08:54:40.368Z,54.70
2018-08-18T08:55:57.272Z,54.90
2018-08-18T08:57:14.225Z,54.00
2018-08-18T08:58:32.533Z,54.00
2018-08-18T08:59:49.935Z,54.00
2018-08-18T09:01:07.050Z,54.00
2018-08-18T09:02:24.399Z,53.90
2018-08-18T09:03:41.609Z,53.70
2018-08-18T09:04:58.354Z,53.70
2018-08-18T09:06:15.010Z,53.70
2018-08-18T09:07:31.720Z,53.70
2018-08-18T09:08:51.590Z,54.00
2018-08-18T09:10:10.371Z,53.90
2018-08-18T09:11:28.810Z,54.10
2018-08-18T09:12:46.048Z,53.80
2018-08-18T09:14:08.704Z,53.80
2018-08-18T09:15:25.750Z,53.60
2018-08-18T09:16:43.134Z,53.90
2018-08-18T09:18:00.436Z,54.50
2018-08-18T09:19:19.164Z,54.30
2018-08-18T09:20:45.191Z,53.70
2018-08-18T09:22:03.155Z,53.70
2018-08-18T09:23:19.935Z,53.60
2018-08-18T09:24:36.561Z,53.60
2018-08-18T09:25:53.200Z,53.60
2018-08-18T09:27:11.192Z,53.60
2018-08-18T09:28:28.611Z,53.50
2018-08-18T09:29:47.404Z,53.40
2018-08-18T09:31:04.487Z,54.20
2018-08-18T09:32:21.450Z,53.70
2018-08-18T09:33:38.926Z,53.50
2018-08-18T09:34:55.701Z,53.60
2018-08-18T09:36:13.128Z,53.60
2018-08-18T09:37:30.577Z,53.50
2018-08-18T09:38:47.393Z,53.40
2018-08-18T09:40:04.195Z,53.60
2018-08-18T09:41:20.960Z,53.50
2018-08-18T09:42:37.728Z,53.40
2018-08-18T09:43:54.945Z,53.40
2018-08-18T09:45:12.262Z,53.80
2018-08-18T09:46:29.354Z,53.50
2018-08-18T09:47:45.941Z,53.60
2018-08-18T09:49:02.666Z,53.60
2018-08-18T09:50:19.592Z,54.00
2018-08-18T09:51:36.656Z,53.30
2018-08-18T09:52:53.319Z,53.30
2018-08-18T09:54:10.330Z,53.30
2018-08-18T09:55:27.277Z,53.30
2018-08-18T09:56:44.926Z,53.40
2018-08-18T09:58:01.758Z,53.30
2018-08-18T09:59:18.995Z,53.30
2018-08-18T10:00:40.682Z,53.30
2018-08-18T10:01:57.598Z,52.90
2018-08-18T10:03:14.414Z,53.20
2018-08-18T10:04:32.053Z,53.20
2018-08-18T10:05:48.833Z,53.10
2018-08-18T10:07:05.917Z,53.10
2018-08-18T10:08:23.816Z,53.00
2018-08-18T10:09:41.404Z,53.10
2018-08-18T10:10:58.333Z,52.90
2018-08-18T10:12:15.205Z,52.50
2018-08-18T10:13:31.959Z,52.60
2018-08-18T10:14:49.180Z,52.60
2018-08-18T10:16:06.277Z,53.30
2018-08-18T10:17:23.002Z,52.80
2018-08-18T10:18:43.710Z,52.50
2018-08-18T10:20:00.912Z,52.50
2018-08-18T10:21:18.429Z,52.60
2018-08-18T10:22:36.029Z,52.40
2018-08-18T10:23:52.858Z,52.20
2018-08-18T10:25:11.158Z,52.30
2018-08-18T10:26:29.133Z,52.40
2018-08-18T10:27:45.980Z,52.40
2018-08-18T10:29:15.235Z,52.30
2018-08-18T10:30:32.413Z,52.60
2018-08-18T10:31:51.845Z,51.80
2018-08-18T10:33:09.245Z,51.70
2018-08-18T10:34:30.614Z,51.70
2018-08-18T10:35:47.499Z,51.70
2018-08-18T10:37:06.178Z,51.70
2018-08-18T10:38:24.061Z,51.70
2018-08-18T10:39:41.940Z,51.80
2018-08-18T10:41:01.998Z,51.70
2018-08-18T10:42:24.802Z,51.90
2018-08-18T10:43:42.044Z,51.80
2018-08-18T10:45:05.658Z,51.90
2018-08-18T10:46:23.046Z,51.80
2018-08-18T10:47:39.536Z,51.80
2018-08-18T10:48:56.325Z,51.80
2018-08-18T10:51:28.544Z,51.80
2018-08-18T10:52:56.916Z,51.90
2018-08-18T10:54:14.180Z,51.80
2018-08-18T10:55:32.114Z,51.80
2018-08-18T10:56:49.018Z,51.80
2018-08-18T10:58:08.979Z,51.80
2018-08-18T10:59:37.634Z,51.80
2018-08-18T11:00:56.154Z,51.80
2018-08-18T11:02:13.229Z,51.60
2018-08-18T11:03:30.809Z,51.90
2018-08-18T11:04:48.016Z,52.00
2018-08-18T11:06:05.491Z,51.90
2018-08-18T11:07:23.592Z,52.40
2018-08-18T11:08:41.657Z,51.80
2018-08-18T11:09:59.479Z,51.80
2018-08-18T11:11:18.769Z,51.10
2018-08-18T11:12:38.721Z,51.60
2018-08-18T11:13:56.277Z,51.60
2018-08-18T11:15:13.662Z,51.70
2018-08-18T11:16:31.271Z,52.00
2018-08-18T11:17:48.292Z,51.90
2018-08-18T11:19:06.040Z,51.70
2018-08-18T11:20:24.223Z,51.70
2018-08-18T11:21:41.995Z,51.70
2018-08-18T11:23:03.486Z,52.20
2018-08-18T11:24:20.397Z,51.40
2018-08-18T11:25:49.224Z,51.60
2018-08-18T11:27:07.443Z,51.40
2018-08-18T11:28:24.545Z,51.40
2018-08-18T11:29:41.373Z,51.20
2018-08-18T11:30:58.235Z,51.00
2018-08-18T11:32:15.540Z,51.40
2018-08-18T11:33:38.840Z,51.20
2018-08-18T11:34:55.790Z,51.30
2018-08-18T11:36:13.228Z,51.30
2018-08-18T11:37:30.821Z,52.10
2018-08-18T11:38:48.322Z,50.70
2018-08-18T11:40:05.527Z,51.20
2018-08-18T11:41:22.692Z,51.20
2018-08-18T11:42:39.789Z,51.10
2018-08-18T11:43:57.340Z,51.10
2018-08-18T11:45:14.280Z,51.10
2018-08-18T11:46:35.765Z,50.90
2018-08-18T11:48:02.044Z,50.80
2018-08-18T11:49:19.837Z,51.40
2018-08-18T11:50:36.948Z,50.60
2018-08-18T11:51:55.102Z,50.70
2018-08-18T11:53:11.760Z,50.80
2018-08-18T11:54:28.469Z,50.60
2018-08-18T11:55:45.326Z,50.60
2018-08-18T11:57:02.156Z,50.60
2018-08-18T11:58:20.200Z,50.30
2018-08-18T11:59:37.633Z,50.40
2018-08-18T12:00:59.469Z,50.20
2018-08-18T12:02:16.200Z,50.30
2018-08-18T12:03:34.136Z,50.10
2018-08-18T12:04:51.731Z,50.00
2018-08-18T12:06:08.808Z,49.50
2018-08-18T12:07:26.276Z,49.50
2018-08-18T12:08:43.096Z,49.60
2018-08-18T12:09:59.731Z,49.40
2018-08-18T12:11:16.730Z,49.20
2018-08-18T12:12:33.314Z,49.00
2018-08-18T12:13:50.170Z,48.90
2018-08-18T12:15:08.528Z,48.90
2018-08-18T12:16:25.969Z,48.90
2018-08-18T12:17:56.760Z,48.80
2018-08-18T12:19:14.063Z,48.70
2018-08-18T12:20:30.753Z,48.70
2018-08-18T12:21:47.980Z,48.50
2018-08-18T12:23:05.604Z,48.10
2018-08-18T12:24:23.004Z,48.20
2018-08-18T12:25:39.587Z,48.10
2018-08-18T12:27:05.829Z,47.90
2018-08-18T12:28:25.013Z,47.70
2018-08-18T12:29:42.310Z,47.50
2018-08-18T12:31:00.015Z,47.70
2018-08-18T12:32:21.868Z,47.70
2018-08-18T12:33:39.194Z,47.70
2018-08-18T12:34:58.387Z,47.70
2018-08-18T12:36:15.404Z,47.50
2018-08-18T12:37:32.285Z,47.50
2018-08-18T12:38:51.903Z,47.30
2018-08-18T12:40:08.782Z,47.20
2018-08-18T12:41:26.304Z,47.20
2018-08-18T12:42:44.038Z,47.00
2018-08-18T12:44:00.772Z,46.80
2018-08-18T12:45:17.476Z,46.60
2018-08-18T12:46:39.492Z,46.80
2018-08-18T12:47:59.936Z,46.60
2018-08-18T12:49:16.946Z,46.50
2018-08-18T12:50:33.853Z,46.60
2018-08-18T12:51:51.460Z,46.50
2018-08-18T12:53:08.449Z,46.60
2018-08-18T12:54:25.897Z,46.50
2018-08-18T12:55:45.749Z,46.40
2018-08-18T12:57:02.846Z,46.50
2018-08-18T12:58:19.864Z,46.20
2018-08-18T12:59:37.270Z,46.40
2018-08-18T13:00:54.566Z,47.10
2018-08-18T13:02:11.488Z,46.60
2018-08-18T13:03:28.189Z,46.00
2018-08-18T13:04:45.092Z,46.10
2018-08-18T13:06:01.661Z,46.20
2018-08-18T13:07:18.512Z,46.40
2018-08-18T13:08:35.393Z,46.60
2018-08-18T13:10:01.429Z,46.80
2018-08-18T13:11:18.441Z,46.60
2018-08-18T13:12:35.058Z,46.70
2018-08-18T13:13:57.275Z,46.80
2018-08-18T13:15:15.504Z,46.70
2018-08-18T13:16:33.219Z,46.80
2018-08-18T13:17:50.666Z,46.70
2018-08-18T13:19:10.177Z,46.70
2018-08-18T13:20:27.569Z,46.50
2018-08-18T13:21:45.036Z,47.00
2018-08-18T13:23:03.016Z,46.40
2018-08-18T13:24:20.350Z,46.40
2018-08-18T13:25:37.169Z,46.00
2018-08-18T13:26:54.036Z,46.00
2018-08-18T13:28:11.840Z,46.10
2018-08-18T13:29:28.714Z,46.20
2018-08-18T13:30:46.139Z,45.90
2018-08-18T13:32:03.037Z,45.80
2018-08-18T13:33:19.967Z,45.20
2018-08-18T13:34:36.603Z,45.10
2018-08-18T13:35:54.699Z,45.30
2018-08-18T13:37:11.816Z,45.70
2018-08-18T13:38:31.404Z,45.90
2018-08-18T13:39:48.420Z,46.10
2018-08-18T13:41:05.029Z,46.10
2018-08-18T13:42:24.189Z,46.10
2018-08-18T13:43:47.276Z,46.00
2018-08-18T13:45:04.662Z,45.90
2018-08-18T13:46:31.517Z,45.70
2018-08-18T13:47:48.276Z,45.70
2018-08-18T13:49:05.218Z,45.90
2018-08-18T13:50:22.084Z,45.90
2018-08-18T13:51:38.901Z,46.20
2018-08-18T13:52:55.731Z,46.30
2018-08-18T13:54:12.597Z,46.40
2018-08-18T13:55:34.706Z,46.20
2018-08-18T13:56:52.167Z,46.30
2018-08-18T13:58:10.257Z,46.60
2018-08-18T13:59:38.524Z,46.60
2018-08-18T14:00:55.497Z,46.60
2018-08-18T14:02:13.005Z,46.70
2018-08-18T14:03:30.093Z,46.60
2018-08-18T14:04:46.825Z,46.70
2018-08-18T14:06:03.465Z,46.80
2018-08-18T14:07:20.336Z,46.80
2018-08-18T14:08:36.960Z,46.60
2018-08-18T14:10:00.493Z,46.60
2018-08-18T14:11:17.712Z,46.70
2018-08-18T14:12:34.412Z,46.80
2018-08-18T14:13:51.277Z,46.80
2018-08-18T14:15:08.083Z,46.90
2018-08-18T14:16:24.822Z,47.10
2018-08-18T14:17:43.180Z,47.40
2018-08-18T14:19:00.649Z,47.20
2018-08-18T14:20:17.830Z,47.70
2018-08-18T14:21:34.690Z,48.10
2018-08-18T14:22:56.495Z,48.00
2018-08-18T14:24:13.772Z,48.90
2018-08-18T14:25:31.329Z,49.30
2018-08-18T14:26:52.544Z,48.70
2018-08-18T14:28:10.140Z,47.70
2018-08-18T14:29:27.038Z,49.90
2018-08-18T14:30:44.121Z,50.30
2018-08-18T14:32:02.801Z,49.60
2018-08-18T14:33:19.505Z,48.40
2018-08-18T14:34:37.101Z,48.70
2018-08-18T14:35:59.921Z,48.80
2018-08-18T14:37:17.334Z,49.70
2018-08-18T14:38:34.546Z,48.80
2018-08-18T14:39:51.752Z,49.00
2018-08-18T14:41:08.671Z,48.50
2018-08-18T14:42:26.364Z,48.60
2018-08-18T14:43:43.412Z,48.40
2018-08-18T14:45:00.856Z,48.30
2018-08-18T14:46:17.807Z,48.70
2018-08-18T14:47:34.777Z,48.30
2018-08-18T14:48:51.885Z,48.30
2018-08-18T14:50:31.156Z,48.50
2018-08-18T14:51:50.415Z,48.70
2018-08-18T14:53:12.430Z,48.50
2018-08-18T14:54:31.173Z,48.30
2018-08-18T14:55:48.683Z,48.70
2018-08-18T14:57:05.324Z,48.60
2018-08-18T14:58:28.362Z,48.50
2018-08-18T14:59:45.516Z,48.30
2018-08-18T15:01:06.917Z,48.30
2018-08-18T15:02:24.194Z,48.20
2018-08-18T15:03:41.640Z,48.30
2018-08-18T15:04:58.934Z,48.10
2018-08-18T15:06:16.704Z,48.00
2018-08-18T15:07:38.553Z,47.90
2018-08-18T15:08:55.985Z,48.00
2018-08-18T15:10:45.933Z,47.70
2018-08-18T15:12:03.346Z,47.60
2018-08-18T15:13:20.924Z,47.40
2018-08-18T15:14:37.972Z,47.50
2018-08-18T15:15:55.473Z,47.60
2018-08-18T15:17:13.070Z,47.80
2018-08-18T15:18:31.021Z,47.10
2018-08-18T15:19:47.790Z,47.20
2018-08-18T15:21:05.002Z,47.10
2018-08-18T15:22:22.110Z,47.20
2018-08-18T15:23:39.226Z,47.40
2018-08-18T15:24:55.853Z,47.30
2018-08-18T15:26:12.943Z,47.00
2018-08-18T15:27:29.508Z,47.20
2018-08-18T15:28:46.265Z,47.00
2018-08-18T15:30:03.412Z,47.10
2018-08-18T15:31:20.161Z,46.90
2018-08-18T15:32:37.142Z,46.90
2018-08-18T15:33:54.229Z,46.60
2018-08-18T15:35:11.453Z,46.70
2018-08-18T15:36:32.837Z,46.70
2018-08-18T15:37:49.764Z,46.80
2018-08-18T15:39:07.308Z,46.90
2018-08-18T15:40:26.727Z,47.10
2018-08-18T15:41:44.341Z,47.10
2018-08-18T15:43:02.361Z,47.40
2018-08-18T15:44:19.465Z,47.50
2018-08-18T15:45:59.154Z,47.50
2018-08-18T15:47:16.094Z,47.70
2018-08-18T15:48:33.421Z,47.80
2018-08-18T15:49:50.527Z,47.70
2018-08-18T15:51:07.447Z,47.90
2018-08-18T15:52:28.396Z,47.80
2018-08-18T15:53:57.230Z,48.00
2018-08-18T15:55:15.066Z,48.00
2018-08-18T15:56:33.163Z,47.20
2018-08-18T15:57:49.763Z,47.70
2018-08-18T15:59:06.724Z,47.80
2018-08-18T16:00:35.140Z,47.80
2018-08-18T16:01:52.069Z,47.80
2018-08-18T16:03:09.090Z,47.70
2018-08-18T16:04:25.912Z,47.70
2018-08-18T16:05:42.724Z,48.40
2018-08-18T16:06:59.532Z,47.90
2018-08-18T16:08:16.502Z,47.90
2018-08-18T16:09:33.097Z,47.80
2018-08-18T16:10:50.042Z,48.00
2018-08-18T16:12:06.645Z,47.80
2018-08-18T16:13:24.038Z,47.70
2018-08-18T16:14:41.021Z,47.70
2018-08-18T16:15:57.899Z,47.70
2018-08-18T16:17:15.237Z,47.50
2018-08-18T16:18:32.476Z,47.60
2018-08-18T16:19:49.667Z,47.60
2018-08-18T16:21:13.385Z,47.70
2018-08-18T16:22:30.715Z,47.60
2018-08-18T16:23:47.595Z,47.60
2018-08-18T16:25:05.036Z,47.70
2018-08-18T16:26:21.804Z,47.60
2018-08-18T16:27:38.854Z,47.60
2018-08-18T16:28:55.389Z,47.50
2018-08-18T16:30:12.108Z,47.30
2018-08-18T16:31:29.290Z,47.30
2018-08-18T16:32:46.909Z,47.30
2018-08-18T16:34:03.661Z,47.20
2018-08-18T16:35:20.654Z,47.30
2018-08-18T16:36:42.610Z,46.90
2018-08-18T16:37:59.397Z,47.00
2018-08-18T16:39:16.230Z,46.90
2018-08-18T16:40:34.635Z,46.90
2018-08-18T16:41:51.672Z,46.90
2018-08-18T16:43:10.782Z,46.80
2018-08-18T16:44:28.187Z,46.70
2018-08-18T16:45:44.867Z,46.90
2018-08-18T16:47:04.188Z,47.00
2018-08-18T16:48:21.553Z,47.50
2018-08-18T16:49:38.401Z,46.80
2018-08-18T16:50:55.425Z,46.80